createdAt,value
2024-01-11T00:00:45.456Z,86.89
2024-01-11T00:03:33.672Z,86.86
2024-01-11T00:06:02.151Z,86.92
2024-01-11T00:08:30.159Z,86.90
2024-01-11T00:10:58.214Z,86.94
2024-01-11T00:13:26.173Z,86.87
2024-01-11T00:15:54.303Z,86.91
2024-01-11T00:18:22.446Z,87.00
2024-01-11T00:20:50.472Z,86.97
2024-01-11T00:23:18.496Z,86.94
2024-01-11T00:25:46.413Z,86.95
2024-01-11T00:28:14.773Z,87.01
2024-01-11T00:30:43.393Z,87.10
2024-01-11T00:33:11.340Z,86.96
2024-01-11T00:35:39.398Z,86.90
2024-01-11T00:38:07.267Z,86.95
2024-01-11T00:40:36.142Z,86.89
2024-01-11T00:43:04.776Z,86.96
2024-01-11T00:45:32.764Z,86.86
2024-01-11T00:48:00.709Z,86.93
2024-01-11T00:50:28.584Z,86.84
2024-01-11T00:52:56.606Z,86.84
2024-01-11T00:55:25.703Z,86.93
2024-01-11T00:57:53.618Z,86.86
2024-01-11T01:00:21.499Z,86.85
2024-01-11T01:02:49.438Z,86.88
2024-01-11T01:05:17.398Z,86.92
2024-01-11T01:07:47.106Z,86.92
2024-01-11T01:10:14.938Z,86.97
2024-01-11T01:12:42.804Z,86.94
2024-01-11T01:15:10.720Z,87.02
2024-01-11T01:17:38.616Z,87.13
2024-01-11T01:20:07.386Z,87.05
2024-01-11T01:22:35.696Z,87.07
2024-01-11T01:25:04.105Z,87.12
2024-01-11T01:27:32.021Z,87.16
2024-01-11T01:30:00.063Z,87.18
2024-01-11T01:32:28.254Z,87.17
2024-01-11T01:34:56.210Z,87.17
2024-01-11T01:37:24.178Z,87.29
2024-01-11T01:39:52.117Z,87.31
2024-01-11T01:42:21.053Z,87.28
2024-01-11T01:44:49.105Z,87.24
2024-01-11T01:47:17.063Z,87.40
2024-01-11T01:49:45.054Z,87.27
2024-01-11T01:52:12.863Z,87.30
2024-01-11T01:54:40.803Z,87.31
2024-01-11T01:57:09.142Z,87.31
2024-01-11T01:59:38.884Z,87.41
2024-01-11T02:02:06.996Z,87.36
2024-01-11T02:04:34.856Z,87.48
2024-01-11T02:07:02.684Z,87.44
2024-01-11T02:09:30.581Z,87.48
2024-01-11T02:11:58.879Z,87.67
2024-01-11T02:14:27.230Z,87.61
2024-01-11T02:16:55.234Z,87.74
2024-01-11T02:19:23.232Z,87.64
2024-01-11T02:21:51.258Z,87.61
2024-01-11T02:24:19.223Z,87.58
2024-01-11T02:27:03.707Z,87.66
2024-01-11T02:29:32.026Z,87.61
2024-01-11T02:32:00.866Z,87.79
2024-01-11T02:34:29.079Z,87.86
2024-01-11T02:36:57.039Z,87.75
2024-01-11T02:39:25.449Z,87.86
2024-01-11T02:41:56.224Z,87.86
2024-01-11T02:44:24.178Z,87.83
2024-01-11T02:46:51.976Z,87.91
2024-01-11T02:49:19.892Z,87.94
2024-01-11T02:51:48.502Z,87.83
2024-01-11T02:54:16.359Z,87.85
2024-01-11T02:56:44.309Z,87.89
2024-01-11T02:59:12.325Z,87.83
2024-01-11T03:01:40.225Z,87.79
2024-01-11T03:04:08.143Z,87.86
2024-01-11T03:06:36.068Z,87.98
2024-01-11T03:09:03.968Z,88.08
2024-01-11T03:11:33.744Z,87.97
2024-01-11T03:14:01.791Z,88.08
2024-01-11T03:16:29.826Z,88.13
2024-01-11T03:18:58.177Z,88.21
2024-01-11T03:21:26.133Z,88.26
2024-01-11T03:23:54.075Z,88.37
2024-01-11T03:26:22.460Z,88.42
2024-01-11T03:28:50.485Z,88.57
2024-01-11T03:31:18.453Z,88.68
2024-01-11T03:33:46.593Z,88.79
2024-01-11T03:36:14.700Z,88.73
2024-01-11T03:38:42.661Z,88.85
2024-01-11T03:41:13.710Z,88.88
2024-01-11T03:43:41.760Z,89.00
2024-01-11T03:46:09.978Z,89.09
2024-01-11T03:48:38.097Z,89.03
2024-01-11T03:51:06.206Z,89.07
2024-01-11T03:53:38.486Z,89.30
2024-01-11T03:56:06.901Z,89.41
2024-01-11T03:58:37.127Z,89.55
2024-01-11T04:01:05.070Z,89.60
2024-01-11T04:03:33.102Z,89.67
2024-01-11T04:06:01.178Z,89.64
2024-01-11T04:08:29.144Z,89.64
2024-01-11T04:10:57.170Z,89.77
2024-01-11T04:13:25.661Z,89.89
2024-01-11T04:15:53.550Z,89.96
2024-01-11T04:18:21.749Z,90.13
2024-01-11T04:20:49.773Z,90.16
2024-01-11T04:23:17.905Z,90.13
2024-01-11T04:25:46.218Z,90.25
2024-01-11T04:28:14.174Z,90.32
2024-01-11T04:30:42.182Z,90.35
2024-01-11T04:33:10.702Z,90.45
2024-01-11T04:35:38.765Z,90.47
2024-01-11T04:38:06.798Z,90.52
2024-01-11T04:40:34.821Z,90.55
2024-01-11T04:43:02.989Z,90.72
2024-01-11T04:45:30.973Z,90.81
2024-01-11T04:47:59.106Z,90.78
2024-01-11T04:50:27.431Z,90.84
2024-01-11T04:52:55.500Z,90.97
2024-01-11T04:55:23.697Z,91.06
2024-01-11T04:57:51.631Z,91.10
2024-01-11T05:00:19.751Z,91.28
2024-01-11T05:02:47.958Z,91.14
2024-01-11T05:05:16.237Z,91.40
2024-01-11T05:07:44.307Z,91.48
2024-01-11T05:10:12.212Z,91.54
2024-01-11T05:12:41.072Z,91.55
2024-01-11T05:15:09.556Z,91.65
2024-01-11T05:17:37.751Z,91.69
2024-01-11T05:20:07.059Z,91.79
2024-01-11T05:22:34.916Z,91.93
2024-01-11T05:25:03.422Z,92.06
2024-01-11T05:27:31.438Z,92.16
2024-01-11T05:29:59.658Z,92.09
2024-01-11T05:32:28.012Z,92.11
2024-01-11T05:34:56.205Z,92.26
2024-01-11T05:37:24.303Z,92.21
2024-01-11T05:39:53.154Z,92.23
2024-01-11T05:42:21.224Z,92.28
2024-01-11T05:44:49.261Z,92.45
2024-01-11T05:47:17.422Z,92.43
2024-01-11T05:49:46.568Z,92.53
2024-01-11T05:52:14.514Z,92.57
2024-01-11T05:54:42.566Z,92.57
2024-01-11T05:57:10.581Z,92.59
2024-01-11T05:59:38.853Z,92.53
2024-01-11T06:02:06.950Z,92.55
2024-01-11T06:04:34.926Z,92.54
2024-01-11T06:07:03.023Z,92.54
2024-01-11T06:09:30.956Z,92.51
2024-01-11T06:11:58.928Z,92.59
2024-01-11T06:14:26.822Z,92.43
2024-01-11T06:16:54.831Z,92.55
2024-01-11T06:19:24.064Z,92.63
2024-01-11T06:21:52.149Z,92.53
2024-01-11T06:24:20.302Z,92.53
2024-01-11T06:26:48.286Z,92.50
2024-01-11T06:29:16.262Z,92.52
2024-01-11T06:31:44.129Z,92.61
2024-01-11T06:34:12.022Z,92.55
2024-01-11T06:36:40.063Z,92.67
2024-01-11T06:39:07.947Z,92.68
2024-01-11T06:41:36.091Z,92.65
2024-01-11T06:44:04.184Z,92.67
2024-01-11T06:46:32.160Z,92.74
2024-01-11T06:49:00.304Z,92.75
2024-01-11T06:51:28.306Z,92.85
2024-01-11T06:53:56.128Z,92.87
2024-01-11T06:56:24.171Z,92.93
2024-01-11T06:58:52.173Z,93.09
2024-01-11T07:01:20.391Z,93.05
2024-01-11T07:03:48.493Z,93.15
2024-01-11T07:06:16.758Z,93.32
2024-01-11T07:08:45.405Z,93.36
2024-01-11T07:11:13.508Z,93.43
2024-01-11T07:13:41.546Z,93.52
2024-01-11T07:16:16.393Z,93.72
2024-01-11T07:18:48.153Z,93.77
2024-01-11T07:21:30.782Z,93.84
2024-01-11T07:24:00.016Z,93.93
2024-01-11T07:26:28.142Z,93.95
2024-01-11T07:28:56.221Z,94.02
2024-01-11T07:31:24.190Z,94.08
2024-01-11T07:33:52.246Z,94.19
2024-01-11T07:36:20.482Z,94.25
2024-01-11T07:38:48.820Z,94.22
2024-01-11T07:41:16.956Z,94.20
2024-01-11T07:43:52.895Z,94.31
2024-01-11T07:46:32.327Z,94.28
2024-01-11T07:49:04.884Z,94.17
2024-01-11T07:51:33.589Z,94.17
2024-01-11T07:54:01.631Z,94.20
2024-01-11T07:56:30.880Z,94.37
2024-01-11T07:58:59.020Z,94.42
2024-01-11T08:01:26.856Z,94.43
2024-01-11T08:03:54.929Z,94.53
2024-01-11T08:06:23.055Z,94.51
2024-01-11T08:08:53.480Z,94.61
2024-01-11T08:11:21.918Z,94.70
2024-01-11T08:13:49.889Z,94.65
2024-01-11T08:16:19.129Z,94.67
2024-01-11T08:18:48.082Z,94.69
2024-01-11T08:21:16.155Z,94.74
2024-01-11T08:23:50.262Z,94.80
2024-01-11T08:26:22.708Z,94.84
2024-01-11T08:28:50.596Z,94.86
2024-01-11T08:31:18.517Z,94.85
2024-01-11T08:33:46.572Z,94.93
2024-01-11T08:36:15.118Z,94.82
2024-01-11T08:38:43.197Z,95.03
2024-01-11T08:41:11.158Z,94.87
2024-01-11T08:43:40.442Z,94.96
2024-01-11T08:46:08.326Z,94.97
2024-01-11T08:48:36.451Z,94.89
2024-01-11T08:51:04.769Z,94.90
2024-01-11T08:53:32.743Z,95.00
2024-01-11T08:56:00.803Z,94.95
2024-01-11T08:58:28.732Z,95.12
2024-01-11T09:00:57.041Z,95.12
2024-01-11T09:03:25.684Z,95.10
2024-01-11T09:05:57.753Z,95.23
2024-01-11T09:08:25.754Z,95.14
2024-01-11T09:10:54.581Z,95.17
2024-01-11T09:13:22.697Z,95.09
2024-01-11T09:15:50.698Z,95.13
2024-01-11T09:18:19.246Z,95.16
2024-01-11T09:20:48.454Z,95.22
2024-01-11T09:23:17.574Z,95.16
2024-01-11T09:25:45.593Z,95.33
2024-01-11T09:28:13.442Z,95.54
2024-01-11T09:30:41.383Z,95.59
2024-01-11T09:33:09.378Z,95.75
2024-01-11T09:35:37.395Z,95.63
2024-01-11T09:38:05.434Z,95.67
2024-01-11T09:40:33.387Z,95.64
2024-01-11T09:43:05.103Z,95.74
2024-01-11T09:45:33.133Z,95.62
2024-01-11T09:48:02.052Z,95.61
2024-01-11T09:50:30.040Z,95.39
2024-01-11T09:52:57.888Z,95.27
2024-01-11T09:55:25.974Z,95.39
2024-01-11T09:57:54.157Z,95.43
2024-01-11T10:00:23.878Z,95.46
2024-01-11T10:02:53.286Z,95.31
2024-01-11T10:05:21.399Z,95.28
2024-01-11T10:07:49.297Z,95.20
2024-01-11T10:10:17.283Z,95.11
2024-01-11T10:12:45.250Z,95.22
2024-01-11T10:15:14.701Z,95.15
2024-01-11T10:17:45.558Z,95.09
2024-01-11T10:20:18.291Z,95.16
2024-01-11T10:22:47.218Z,95.11
2024-01-11T10:25:16.481Z,95.24
2024-01-11T10:27:45.363Z,95.27
2024-01-11T10:30:18.024Z,95.26
2024-01-11T10:32:47.317Z,95.30
2024-01-11T10:35:15.467Z,95.41
2024-01-11T10:37:43.892Z,95.42
2024-01-11T10:40:13.759Z,95.29
2024-01-11T10:42:46.376Z,95.16
2024-01-11T10:45:18.196Z,95.30
2024-01-11T10:48:01.641Z,95.08
2024-01-11T10:50:35.824Z,95.19
2024-01-11T10:53:25.447Z,95.32
2024-01-11T10:55:53.311Z,95.35
2024-01-11T10:58:22.202Z,95.30
2024-01-11T11:00:51.159Z,95.33
2024-01-11T11:03:19.302Z,95.35
2024-01-11T11:05:49.345Z,95.39
2024-01-11T11:08:17.472Z,95.44
2024-01-11T11:10:45.353Z,95.45
2024-01-11T11:13:13.625Z,95.50
2024-01-11T11:15:42.994Z,95.54
2024-01-11T11:18:11.116Z,95.59
2024-01-11T11:20:39.202Z,95.72
2024-01-11T11:23:07.731Z,95.75
2024-01-11T11:25:35.803Z,95.78
2024-01-11T11:28:05.928Z,95.83
2024-01-11T11:30:37.599Z,95.87
2024-01-11T11:33:12.904Z,95.92
2024-01-11T11:35:41.086Z,95.98
2024-01-11T11:38:09.333Z,96.12
2024-01-11T11:40:40.184Z,96.14
2024-01-11T11:43:08.229Z,96.19
2024-01-11T11:45:36.692Z,96.14
2024-01-11T11:48:31.442Z,96.17
2024-01-11T11:51:20.628Z,96.22
2024-01-11T11:53:49.923Z,96.15
2024-01-11T11:56:24.458Z,96.22
2024-01-11T11:58:54.351Z,96.22
2024-01-11T12:01:22.397Z,96.37
2024-01-11T12:03:50.763Z,96.41
2024-01-11T12:06:20.408Z,96.41
2024-01-11T12:08:49.006Z,96.56
2024-01-11T12:11:21.050Z,96.55
2024-01-11T12:13:49.680Z,96.50
2024-01-11T12:16:17.922Z,96.70
2024-01-11T12:18:46.010Z,96.77
2024-01-11T12:21:13.913Z,96.94
2024-01-11T12:23:43.236Z,96.87
2024-01-11T12:26:15.192Z,96.85
2024-01-11T12:28:45.562Z,96.75
2024-01-11T12:31:14.061Z,96.69
2024-01-11T12:33:43.061Z,96.70
2024-01-11T12:36:11.473Z,96.66
2024-01-11T12:38:40.722Z,96.89
2024-01-11T12:41:08.646Z,97.02
2024-01-11T12:43:36.556Z,96.96
2024-01-11T12:46:05.277Z,96.88
2024-01-11T12:48:33.508Z,97.05
2024-01-11T12:51:10.742Z,97.00
2024-01-11T12:53:50.181Z,96.88
2024-01-11T12:56:18.446Z,97.14
2024-01-11T12:58:48.290Z,97.05
2024-01-11T13:01:16.577Z,97.07
2024-01-11T13:03:45.905Z,97.08
2024-01-11T13:06:14.774Z,97.06
2024-01-11T13:08:43.753Z,97.00
2024-01-11T13:11:15.057Z,97.07
2024-01-11T13:13:43.347Z,97.07
2024-01-11T13:16:15.401Z,97.13
2024-01-11T13:18:43.733Z,97.25
2024-01-11T13:21:13.757Z,97.19
2024-01-11T13:23:41.923Z,97.05
2024-01-11T13:26:10.106Z,97.14
2024-01-11T13:28:38.020Z,97.15
2024-01-11T13:31:06.097Z,97.17
2024-01-11T13:33:34.227Z,97.27
2024-01-11T13:36:02.552Z,97.15
2024-01-11T13:38:30.581Z,97.21
2024-01-11T13:40:58.508Z,97.38
2024-01-11T13:43:26.338Z,97.34
2024-01-11T13:45:55.710Z,97.38
2024-01-11T13:48:23.689Z,97.40
2024-01-11T13:50:51.720Z,97.45
2024-01-11T13:53:19.812Z,97.66
2024-01-11T13:55:48.123Z,97.70
2024-01-11T13:58:16.668Z,97.76
2024-01-11T14:00:45.490Z,97.86
2024-01-11T14:03:13.701Z,97.81
2024-01-11T14:05:42.891Z,97.78
2024-01-11T14:08:10.923Z,97.89
2024-01-11T14:10:38.820Z,97.92
2024-01-11T14:13:06.786Z,97.92
2024-01-11T14:15:34.787Z,97.97
2024-01-11T14:18:03.145Z,97.94
2024-01-11T14:20:32.162Z,98.08
2024-01-11T14:23:00.300Z,98.14
2024-01-11T14:25:28.348Z,98.13
2024-01-11T14:27:57.339Z,98.21
2024-01-11T14:30:25.490Z,98.09
2024-01-11T14:32:54.524Z,98.23
2024-01-11T14:35:22.834Z,98.22
2024-01-11T14:37:51.561Z,98.30
2024-01-11T14:40:19.612Z,98.35
2024-01-11T14:42:47.516Z,98.42
2024-01-11T14:45:15.388Z,98.44
2024-01-11T14:47:43.484Z,98.49
2024-01-11T14:50:12.666Z,98.56
2024-01-11T14:52:40.901Z,98.53
2024-01-11T14:55:11.103Z,98.64
2024-01-11T14:57:40.583Z,98.71
2024-01-11T15:00:09.666Z,98.80
2024-01-11T15:02:37.885Z,98.79
2024-01-11T15:05:06.551Z,98.83
2024-01-11T15:07:34.836Z,98.88
2024-01-11T15:10:03.815Z,99.07
2024-01-11T15:12:32.133Z,98.97
2024-01-11T15:15:00.321Z,99.11
2024-01-11T15:17:29.302Z,99.22
2024-01-11T15:19:57.786Z,99.32
2024-01-11T15:22:25.880Z,99.48
2024-01-11T15:24:55.014Z,99.54
2024-01-11T15:27:23.289Z,99.74
2024-01-11T15:29:54.592Z,99.80
2024-01-11T15:32:23.925Z,99.75
2024-01-11T15:34:54.222Z,99.96
2024-01-11T15:37:24.283Z,99.97
2024-01-11T15:39:52.393Z,99.98
2024-01-11T15:42:20.530Z,100.00
2024-01-11T15:44:49.341Z,100.00
2024-01-11T15:47:17.830Z,100.00
2024-01-11T15:49:46.189Z,100.00
2024-01-11T15:52:14.556Z,100.00
2024-01-11T15:54:42.838Z,100.00
2024-01-11T15:57:11.108Z,100.00
2024-01-11T15:59:39.436Z,100.00
2024-01-11T16:02:08.250Z,100.00
2024-01-11T16:04:39.400Z,100.00
2024-01-11T16:07:07.617Z,100.00
2024-01-11T16:09:35.704Z,100.00
2024-01-11T16:12:05.901Z,100.00
2024-01-11T16:14:35.298Z,100.00
2024-01-11T16:17:03.962Z,100.00
2024-01-11T16:19:34.628Z,100.00
2024-01-11T16:22:04.511Z,100.00
2024-01-11T16:24:32.779Z,100.00
2024-01-11T16:27:00.931Z,100.00
2024-01-11T16:29:29.105Z,100.00
2024-01-11T16:31:57.362Z,100.00
2024-01-11T16:34:25.653Z,100.00
2024-01-11T16:36:53.942Z,100.00
2024-01-11T16:39:22.258Z,100.00
2024-01-11T16:41:52.509Z,100.00
2024-01-11T16:44:20.817Z,100.00
2024-01-11T16:46:49.148Z,100.00
2024-01-11T16:49:17.464Z,100.00
2024-01-11T16:51:49.395Z,100.00
2024-01-11T16:54:19.902Z,100.00
2024-01-11T16:56:49.002Z,100.00
2024-01-11T16:59:19.402Z,100.00
2024-01-11T17:01:48.186Z,100.00
2024-01-11T17:04:16.765Z,100.00
2024-01-11T17:06:47.337Z,100.00
2024-01-11T17:09:15.675Z,100.00
2024-01-11T17:11:44.276Z,100.00
2024-01-11T17:14:12.886Z,100.00
2024-01-11T17:16:42.550Z,100.00
2024-01-11T17:19:14.870Z,100.00
2024-01-11T17:21:44.406Z,100.00
2024-01-11T17:24:15.226Z,100.00
2024-01-11T17:26:43.514Z,100.00
2024-01-11T17:29:15.856Z,100.00
2024-01-11T17:31:46.143Z,100.00
2024-01-11T17:34:15.851Z,100.00
2024-01-11T17:36:44.677Z,100.00
2024-01-11T17:39:13.197Z,100.00
2024-01-11T17:41:43.452Z,100.00
2024-01-11T17:44:16.554Z,100.00
2024-01-11T17:46:47.792Z,100.00
2024-01-11T17:49:19.303Z,100.00
2024-01-11T17:51:51.401Z,100.00
2024-01-11T17:54:21.067Z,100.00
2024-01-11T17:56:52.174Z,100.00
2024-01-11T17:59:20.979Z,100.00
2024-01-11T18:01:49.929Z,100.00
2024-01-11T18:04:22.370Z,100.00
2024-01-11T18:06:51.417Z,100.00
2024-01-11T18:09:23.467Z,100.00
2024-01-11T18:11:53.112Z,100.00
2024-01-11T18:14:21.916Z,100.00
2024-01-11T18:16:52.499Z,100.00
2024-01-11T18:19:21.900Z,100.00
2024-01-11T18:21:54.276Z,100.00
2024-01-11T18:24:24.487Z,100.00
2024-01-11T18:26:57.260Z,100.00
2024-01-11T18:29:32.259Z,100.00
2024-01-11T18:32:01.376Z,100.00
2024-01-11T18:34:36.516Z,100.00
2024-01-11T18:37:10.786Z,100.00
2024-01-11T18:39:44.870Z,100.00
2024-01-11T18:42:17.739Z,99.94
2024-01-11T18:44:49.220Z,99.98
2024-01-11T18:47:25.536Z,99.89
2024-01-11T18:49:57.303Z,99.92
2024-01-11T18:52:36.348Z,99.83
2024-01-11T18:55:16.559Z,99.92
2024-01-11T18:57:49.531Z,99.92
2024-01-11T19:00:24.037Z,99.96
2024-01-11T19:02:55.685Z,99.87
2024-01-11T19:05:28.297Z,99.88
2024-01-11T19:08:02.402Z,99.86
2024-01-11T19:10:33.619Z,99.93
2024-01-11T19:15:55.431Z,99.88
2024-01-11T19:18:29.992Z,99.95
2024-01-11T19:21:05.420Z,99.84
2024-01-11T19:23:40.072Z,99.60
2024-01-11T19:26:17.271Z,99.45
2024-01-11T19:28:52.771Z,99.41
2024-01-11T19:31:28.143Z,99.35
2024-01-11T19:33:59.630Z,99.28
2024-01-11T19:36:34.355Z,99.04
2024-01-11T19:39:13.138Z,98.90
2024-01-11T19:41:45.123Z,98.88
2024-01-11T19:44:17.797Z,98.68
2024-01-11T19:46:50.381Z,98.69
2024-01-11T19:49:22.820Z,98.62
2024-01-11T19:51:55.433Z,98.29
2024-01-11T19:54:35.384Z,98.33
2024-01-11T19:57:07.262Z,98.66
2024-01-11T19:59:40.962Z,98.61
2024-01-11T20:02:13.825Z,98.67
2024-01-11T20:04:47.695Z,98.65
2024-01-11T20:07:25.798Z,98.63
2024-01-11T20:09:57.633Z,98.60
2024-01-11T20:12:30.913Z,98.42
2024-01-11T20:15:01.851Z,98.41
2024-01-11T20:17:37.132Z,98.44
2024-01-11T20:20:18.779Z,98.61
2024-01-11T20:23:01.367Z,98.56
2024-01-11T20:25:33.918Z,98.51
2024-01-11T20:28:13.305Z,98.41
2024-01-11T20:30:45.097Z,98.47
2024-01-11T20:33:19.556Z,98.49
2024-01-11T20:35:57.435Z,98.32
2024-01-11T20:38:43.072Z,98.27
2024-01-11T20:41:20.364Z,98.14
2024-01-11T20:43:54.616Z,98.12
2024-01-11T20:46:24.968Z,97.96
2024-01-11T20:48:56.600Z,98.01
2024-01-11T20:51:29.775Z,97.96
2024-01-11T20:54:10.427Z,97.82
2024-01-11T20:56:46.964Z,97.76
2024-01-11T20:59:20.883Z,97.71
2024-01-11T21:01:59.339Z,97.78
2024-01-11T21:04:36.300Z,97.81
2024-01-11T21:07:11.902Z,97.80
2024-01-11T21:09:40.690Z,97.82
2024-01-11T21:12:12.131Z,97.65
2024-01-11T21:14:44.793Z,97.83
2024-01-11T21:17:22.931Z,97.79
2024-01-11T21:20:04.383Z,97.75
2024-01-11T21:22:35.960Z,97.86
2024-01-11T21:25:08.379Z,97.61
2024-01-11T21:27:48.749Z,97.57
2024-01-11T21:30:31.535Z,97.40
2024-01-11T21:33:00.742Z,97.41
2024-01-11T21:35:31.835Z,97.30
2024-01-11T21:38:00.224Z,97.39
2024-01-11T21:40:32.503Z,97.47
2024-01-11T21:43:07.701Z,97.33
2024-01-11T21:45:39.910Z,97.35
2024-01-11T21:48:08.251Z,97.18
2024-01-11T21:50:38.136Z,97.24
2024-01-11T21:53:08.506Z,97.26
2024-01-11T21:55:41.900Z,97.46
2024-01-11T21:58:12.549Z,97.43
2024-01-11T22:00:41.199Z,97.38
2024-01-11T22:03:11.380Z,97.30
2024-01-11T22:05:40.614Z,97.34
2024-01-11T22:08:11.173Z,97.23
2024-01-11T22:10:39.403Z,97.27
2024-01-11T22:13:07.530Z,97.22
2024-01-11T22:15:36.229Z,97.31
2024-01-11T22:18:07.570Z,97.26
2024-01-11T22:20:36.539Z,97.35
2024-01-11T22:23:07.309Z,97.27
2024-01-11T22:25:35.865Z,97.27
2024-01-11T22:28:04.499Z,97.41
2024-01-11T22:30:32.817Z,97.46
2024-01-11T22:33:03.377Z,97.31
2024-01-11T22:35:31.690Z,97.39
2024-01-11T22:38:00.357Z,97.24
2024-01-11T22:40:28.514Z,97.10
2024-01-11T22:42:56.822Z,97.42
2024-01-11T22:45:25.132Z,97.32
2024-01-11T22:47:53.705Z,97.25
2024-01-11T22:50:22.539Z,97.44
2024-01-11T22:52:50.978Z,97.27
2024-01-11T22:55:18.886Z,97.27
2024-01-11T22:57:46.916Z,97.34
2024-01-11T23:00:26.778Z,97.27
2024-01-11T23:02:54.995Z,97.37
2024-01-11T23:05:23.289Z,97.12
2024-01-11T23:07:51.350Z,97.00
2024-01-11T23:10:20.090Z,97.14
2024-01-11T23:12:48.236Z,97.20
2024-01-11T23:15:16.178Z,97.32
2024-01-11T23:17:44.369Z,97.25
2024-01-11T23:20:12.914Z,97.00
2024-01-11T23:22:40.951Z,96.90
2024-01-11T23:25:09.242Z,96.90
2024-01-11T23:27:37.239Z,96.84
2024-01-11T23:30:05.595Z,96.85
2024-01-11T23:32:33.903Z,96.88
2024-01-11T23:35:02.315Z,96.94
2024-01-11T23:37:30.173Z,97.02
2024-01-11T23:39:58.075Z,96.98
2024-01-11T23:42:26.236Z,96.81
2024-01-11T23:44:54.629Z,96.74
2024-01-11T23:47:22.723Z,96.61
2024-01-11T23:49:51.021Z,96.64
2024-01-11T23:52:19.428Z,96.57
2024-01-11T23:54:47.422Z,96.75
2024-01-11T23:57:15.359Z,96.66
2024-01-11T23:59:44.061Z,96.54
